sensor_id;sensor_type;location;lat;lon;timestamp;P1;durP1;ratioP1;P2;durP2;ratioP2
80179;SDS011;69505;52.134;5.438;2024-03-23T00:54:36;18.17;;;6.03;;
80179;SDS011;69505;52.134;5.438;2024-03-23T00:57:02;21.17;;;5.57;;
80179;SDS011;69505;52.134;5.438;2024-03-23T00:59:27;19.40;;;5.78;;
80179;SDS011;69505;52.134;5.438;2024-03-23T01:01:56;15.10;;;5.35;;
80179;SDS011;69505;52.134;5.438;2024-03-23T01:04:22;13.07;;;5.32;;
80179;SDS011;69505;52.134;5.438;2024-03-23T01:06:48;16.65;;;5.55;;
80179;SDS011;69505;52.134;5.438;2024-03-23T01:09:13;12.63;;;5.32;;
80179;SDS011;69505;52.134;5.438;2024-03-23T01:11:39;19.83;;;6.28;;
80179;SDS011;69505;52.134;5.438;2024-03-23T01:14:05;16.25;;;5.82;;
80179;SDS011;69505;52.134;5.438;2024-03-23T01:16:31;15.07;;;5.30;;
80179;SDS011;69505;52.134;5.438;2024-03-23T01:18:57;16.90;;;5.47;;
80179;SDS011;69505;52.134;5.438;2024-03-23T01:21:23;17.00;;;5.60;;
80179;SDS011;69505;52.134;5.438;2024-03-23T01:23:49;16.65;;;5.47;;
80179;SDS011;69505;52.134;5.438;2024-03-23T01:26:14;16.73;;;5.10;;
80179;SDS011;69505;52.134;5.438;2024-03-23T01:28:40;15.57;;;5.63;;
80179;SDS011;69505;52.134;5.438;2024-03-23T01:31:06;16.38;;;5.53;;
80179;SDS011;69505;52.134;5.438;2024-03-23T01:33:32;14.57;;;4.43;;
80179;SDS011;69505;52.134;5.438;2024-03-23T01:35:57;14.95;;;5.18;;
80179;SDS011;69505;52.134;5.438;2024-03-23T01:38:23;14.82;;;5.25;;
80179;SDS011;69505;52.134;5.438;2024-03-23T01:40:49;19.10;;;5.65;;
80179;SDS011;69505;52.134;5.438;2024-03-23T01:43:14;16.67;;;5.90;;
80179;SDS011;69505;52.134;5.438;2024-03-23T01:45:40;21.50;;;6.18;;
80179;SDS011;69505;52.134;5.438;2024-03-23T01:48:06;12.55;;;5.30;;
80179;SDS011;69505;52.134;5.438;2024-03-23T01:50:32;20.10;;;5.63;;
80179;SDS011;69505;52.134;5.438;2024-03-23T01:53:02;18.60;;;5.40;;
80179;SDS011;69505;52.134;5.438;2024-03-23T01:55:28;18.92;;;6.25;;
80179;SDS011;69505;52.134;5.438;2024-03-23T01:57:56;19.40;;;5.88;;
80179;SDS011;69505;52.134;5.438;2024-03-23T02:00:22;14.57;;;5.63;;
80179;SDS011;69505;52.134;5.438;2024-03-23T02:02:48;18.25;;;5.57;;
80179;SDS011;69505;52.134;5.438;2024-03-23T02:05:14;14.50;;;6.10;;
80179;SDS011;69505;52.134;5.438;2024-03-23T02:07:40;12.18;;;4.68;;
80179;SDS011;69505;52.134;5.438;2024-03-23T02:10:08;17.27;;;5.68;;
80179;SDS011;69505;52.134;5.438;2024-03-23T02:12:35;12.13;;;4.50;;
80179;SDS011;69505;52.134;5.438;2024-03-23T02:15:01;19.13;;;5.65;;
80179;SDS011;69505;52.134;5.438;2024-03-23T02:17:27;15.23;;;6.03;;
80179;SDS011;69505;52.134;5.438;2024-03-23T02:19:54;14.82;;;5.55;;
80179;SDS011;69505;52.134;5.438;2024-03-23T02:22:19;17.35;;;5.60;;
80179;SDS011;69505;52.134;5.438;2024-03-23T02:24:45;18.70;;;5.68;;
80179;SDS011;69505;52.134;5.438;2024-03-23T02:27:11;13.60;;;5.65;;
80179;SDS011;69505;52.134;5.438;2024-03-23T02:29:37;18.48;;;5.68;;
80179;SDS011;69505;52.134;5.438;2024-03-23T02:32:03;13.50;;;5.15;;
80179;SDS011;69505;52.134;5.438;2024-03-23T02:34:29;17.00;;;4.90;;
80179;SDS011;69505;52.134;5.438;2024-03-23T02:36:54;14.13;;;5.18;;
80179;SDS011;69505;52.134;5.438;2024-03-23T02:39:20;16.10;;;5.22;;
80179;SDS011;69505;52.134;5.438;2024-03-23T02:41:46;14.93;;;4.93;;
80179;SDS011;69505;52.134;5.438;2024-03-23T02:44:12;16.33;;;5.03;;
80179;SDS011;69505;52.134;5.438;2024-03-23T02:46:39;13.15;;;5.07;;
80179;SDS011;69505;52.134;5.438;2024-03-23T02:49:05;15.23;;;5.10;;
80179;SDS011;69505;52.134;5.438;2024-03-23T02:51:31;9.98;;;4.70;;
80179;SDS011;69505;52.134;5.438;2024-03-23T02:53:57;18.20;;;4.60;;
80179;SDS011;69505;52.134;5.438;2024-03-23T02:56:22;15.15;;;5.13;;
80179;SDS011;69505;52.134;5.438;2024-03-23T02:58:48;13.77;;;4.65;;
80179;SDS011;69505;52.134;5.438;2024-03-23T03:01:14;12.13;;;4.38;;
80179;SDS011;69505;52.134;5.438;2024-03-23T03:03:40;11.20;;;4.45;;
80179;SDS011;69505;52.134;5.438;2024-03-23T03:06:05;18.55;;;4.43;;
80179;SDS011;69505;52.134;5.438;2024-03-23T03:08:31;13.50;;;4.60;;
80179;SDS011;69505;52.134;5.438;2024-03-23T03:10:56;14.07;;;4.43;;
80179;SDS011;69505;52.134;5.438;2024-03-23T03:13:22;14.88;;;4.50;;
80179;SDS011;69505;52.134;5.438;2024-03-23T03:15:47;12.65;;;4.50;;
80179;SDS011;69505;52.134;5.438;2024-03-23T03:18:13;14.52;;;4.32;;
80179;SDS011;69505;52.134;5.438;2024-03-23T03:20:39;11.95;;;3.67;;
80179;SDS011;69505;52.134;5.438;2024-03-23T03:23:05;11.93;;;3.92;;
80179;SDS011;69505;52.134;5.438;2024-03-23T03:25:31;10.15;;;4.20;;
80179;SDS011;69505;52.134;5.438;2024-03-23T03:27:57;10.40;;;3.53;;
80179;SDS011;69505;52.134;5.438;2024-03-23T03:30:23;10.15;;;3.95;;
80179;SDS011;69505;52.134;5.438;2024-03-23T03:32:49;14.68;;;5.30;;
80179;SDS011;69505;52.134;5.438;2024-03-23T03:35:15;12.65;;;4.32;;
80179;SDS011;69505;52.134;5.438;2024-03-23T03:37:41;13.60;;;3.85;;
80179;SDS011;69505;52.134;5.438;2024-03-23T03:40:06;9.38;;;3.63;;
80179;SDS011;69505;52.134;5.438;2024-03-23T03:42:34;11.15;;;3.70;;
80179;SDS011;69505;52.134;5.438;2024-03-23T03:45:00;14.05;;;4.10;;
80179;SDS011;69505;52.134;5.438;2024-03-23T03:47:26;13.30;;;3.92;;
80179;SDS011;69505;52.134;5.438;2024-03-23T03:49:52;10.38;;;3.83;;
80179;SDS011;69505;52.134;5.438;2024-03-23T03:52:17;8.52;;;4.18;;
80179;SDS011;69505;52.134;5.438;2024-03-23T03:54:43;9.65;;;4.25;;
80179;SDS011;69505;52.134;5.438;2024-03-23T03:57:08;12.55;;;3.85;;
80179;SDS011;69505;52.134;5.438;2024-03-23T03:59:34;13.57;;;3.75;;
80179;SDS011;69505;52.134;5.438;2024-03-23T04:01:59;13.52;;;3.78;;
80179;SDS011;69505;52.134;5.438;2024-03-23T04:04:25;13.63;;;4.25;;
80179;SDS011;69505;52.134;5.438;2024-03-23T04:06:57;13.48;;;3.75;;
80179;SDS011;69505;52.134;5.438;2024-03-23T04:09:24;9.18;;;3.72;;
80179;SDS011;69505;52.134;5.438;2024-03-23T04:11:50;15.20;;;3.75;;
80179;SDS011;69505;52.134;5.438;2024-03-23T04:14:15;9.48;;;3.47;;
80179;SDS011;69505;52.134;5.438;2024-03-23T04:16:41;10.73;;;3.42;;
80179;SDS011;69505;52.134;5.438;2024-03-23T04:19:06;12.88;;;4.18;;
80179;SDS011;69505;52.134;5.438;2024-03-23T04:21:32;13.60;;;4.10;;
80179;SDS011;69505;52.134;5.438;2024-03-23T04:23:57;9.10;;;3.95;;
80179;SDS011;69505;52.134;5.438;2024-03-23T04:26:23;11.90;;;3.70;;
80179;SDS011;69505;52.134;5.438;2024-03-23T04:28:49;9.73;;;3.58;;
80179;SDS011;69505;52.134;5.438;2024-03-23T04:31:14;10.25;;;3.65;;
80179;SDS011;69505;52.134;5.438;2024-03-23T04:33:40;10.38;;;3.80;;
80179;SDS011;69505;52.134;5.438;2024-03-23T04:36:06;10.90;;;4.10;;
80179;SDS011;69505;52.134;5.438;2024-03-23T04:38:32;8.82;;;3.28;;
80179;SDS011;69505;52.134;5.438;2024-03-23T04:40:58;12.38;;;4.00;;
80179;SDS011;69505;52.134;5.438;2024-03-23T04:43:28;12.82;;;4.10;;
80179;SDS011;69505;52.134;5.438;2024-03-23T04:45:53;12.93;;;3.22;;
80179;SDS011;69505;52.134;5.438;2024-03-23T04:48:22;13.02;;;3.50;;
80179;SDS011;69505;52.134;5.438;2024-03-23T04:50:49;7.40;;;3.47;;
80179;SDS011;69505;52.134;5.438;2024-03-23T04:53:15;14.85;;;3.88;;
80179;SDS011;69505;52.134;5.438;2024-03-23T04:55:41;8.32;;;3.78;;
80179;SDS011;69505;52.134;5.438;2024-03-23T04:58:08;7.85;;;3.17;;
80179;SDS011;69505;52.134;5.438;2024-03-23T05:00:33;10.70;;;2.83;;
80179;SDS011;69505;52.134;5.438;2024-03-23T05:03:01;8.50;;;2.75;;
80179;SDS011;69505;52.134;5.438;2024-03-23T05:05:26;8.40;;;2.80;;
80179;SDS011;69505;52.134;5.438;2024-03-23T05:07:52;9.25;;;3.03;;
80179;SDS011;69505;52.134;5.438;2024-03-23T05:10:17;10.40;;;2.70;;
80179;SDS011;69505;52.134;5.438;2024-03-23T05:12:43;6.95;;;2.22;;
80179;SDS011;69505;52.134;5.438;2024-03-23T05:15:10;6.47;;;2.60;;
80179;SDS011;69505;52.134;5.438;2024-03-23T05:17:36;6.93;;;2.53;;
80179;SDS011;69505;52.134;5.438;2024-03-23T05:20:03;8.60;;;2.90;;
80179;SDS011;69505;52.134;5.438;2024-03-23T05:22:29;8.52;;;2.33;;
80179;SDS011;69505;52.134;5.438;2024-03-23T05:24:54;6.20;;;2.67;;
80179;SDS011;69505;52.134;5.438;2024-03-23T05:27:21;7.45;;;2.78;;
80179;SDS011;69505;52.134;5.438;2024-03-23T05:29:46;11.00;;;2.33;;
80179;SDS011;69505;52.134;5.438;2024-03-23T05:32:12;8.80;;;2.58;;
80179;SDS011;69505;52.134;5.438;2024-03-23T05:34:38;6.28;;;1.98;;
80179;SDS011;69505;52.134;5.438;2024-03-23T05:37:03;7.10;;;2.03;;
80179;SDS011;69505;52.134;5.438;2024-03-23T05:39:29;11.15;;;2.40;;
80179;SDS011;69505;52.134;5.438;2024-03-23T05:41:55;8.40;;;2.00;;
80179;SDS011;69505;52.134;5.438;2024-03-23T05:44:20;12.88;;;2.28;;
80179;SDS011;69505;52.134;5.438;2024-03-23T05:46:46;10.27;;;2.30;;
80179;SDS011;69505;52.134;5.438;2024-03-23T05:49:14;8.80;;;2.55;;
80179;SDS011;69505;52.134;5.438;2024-03-23T05:51:40;5.68;;;2.05;;
80179;SDS011;69505;52.134;5.438;2024-03-23T05:54:06;5.13;;;1.85;;
80179;SDS011;69505;52.134;5.438;2024-03-23T05:56:31;7.05;;;2.05;;
80179;SDS011;69505;52.134;5.438;2024-03-23T05:58:57;8.57;;;1.75;;
80179;SDS011;69505;52.134;5.438;2024-03-23T06:01:23;12.15;;;2.13;;
80179;SDS011;69505;52.134;5.438;2024-03-23T06:03:48;7.60;;;1.73;;
80179;SDS011;69505;52.134;5.438;2024-03-23T06:06:14;10.35;;;1.63;;
80179;SDS011;69505;52.134;5.438;2024-03-23T06:08:39;6.85;;;1.40;;
80179;SDS011;69505;52.134;5.438;2024-03-23T06:11:05;6.85;;;1.85;;
80179;SDS011;69505;52.134;5.438;2024-03-23T06:13:32;8.88;;;2.13;;
80179;SDS011;69505;52.134;5.438;2024-03-23T06:15:59;6.97;;;1.52;;
80179;SDS011;69505;52.134;5.438;2024-03-23T06:18:25;7.03;;;1.77;;
80179;SDS011;69505;52.134;5.438;2024-03-23T06:20:51;7.53;;;1.50;;
80179;SDS011;69505;52.134;5.438;2024-03-23T06:23:17;6.07;;;1.67;;
80179;SDS011;69505;52.134;5.438;2024-03-23T06:25:45;8.27;;;1.70;;
80179;SDS011;69505;52.134;5.438;2024-03-23T06:28:11;8.52;;;1.80;;
80179;SDS011;69505;52.134;5.438;2024-03-23T06:30:36;7.63;;;1.60;;
80179;SDS011;69505;52.134;5.438;2024-03-23T06:33:02;6.32;;;1.40;;
80179;SDS011;69505;52.134;5.438;2024-03-23T06:35:28;6.50;;;1.63;;
80179;SDS011;69505;52.134;5.438;2024-03-23T06:37:54;10.27;;;1.40;;
80179;SDS011;69505;52.134;5.438;2024-03-23T06:40:19;6.85;;;1.83;;
80179;SDS011;69505;52.134;5.438;2024-03-23T06:42:45;6.10;;;1.20;;
80179;SDS011;69505;52.134;5.438;2024-03-23T06:45:10;5.38;;;1.30;;
80179;SDS011;69505;52.134;5.438;2024-03-23T06:47:36;4.55;;;1.60;;
80179;SDS011;69505;52.134;5.438;2024-03-23T06:50:02;4.65;;;1.45;;
80179;SDS011;69505;52.134;5.438;2024-03-23T06:52:29;9.73;;;1.52;;
80179;SDS011;69505;52.134;5.438;2024-03-23T06:54:55;7.00;;;1.25;;
80179;SDS011;69505;52.134;5.438;2024-03-23T06:57:21;5.20;;;1.40;;
80179;SDS011;69505;52.134;5.438;2024-03-23T06:59:47;5.55;;;1.63;;
80179;SDS011;69505;52.134;5.438;2024-03-23T07:02:13;6.10;;;1.90;;
80179;SDS011;69505;52.134;5.438;2024-03-23T07:04:41;7.55;;;1.67;;
80179;SDS011;69505;52.134;5.438;2024-03-23T07:07:07;9.82;;;1.70;;
80179;SDS011;69505;52.134;5.438;2024-03-23T07:09:33;9.40;;;1.95;;
80179;SDS011;69505;52.134;5.438;2024-03-23T07:11:58;8.63;;;1.90;;
80179;SDS011;69505;52.134;5.438;2024-03-23T07:14:24;6.30;;;1.92;;
80179;SDS011;69505;52.134;5.438;2024-03-23T07:16:50;10.23;;;1.80;;
80179;SDS011;69505;52.134;5.438;2024-03-23T07:19:16;8.80;;;1.70;;
80179;SDS011;69505;52.134;5.438;2024-03-23T07:21:42;15.00;;;2.08;;
80179;SDS011;69505;52.134;5.438;2024-03-23T07:24:09;13.50;;;2.10;;
80179;SDS011;69505;52.134;5.438;2024-03-23T07:26:35;7.47;;;1.50;;
80179;SDS011;69505;52.134;5.438;2024-03-23T07:29:01;7.45;;;2.40;;
80179;SDS011;69505;52.134;5.438;2024-03-23T07:31:27;6.00;;;2.10;;
80179;SDS011;69505;52.134;5.438;2024-03-23T07:33:52;9.23;;;1.80;;
80179;SDS011;69505;52.134;5.438;2024-03-23T07:36:18;6.57;;;2.08;;
80179;SDS011;69505;52.134;5.438;2024-03-23T07:38:44;8.02;;;1.80;;
80179;SDS011;69505;52.134;5.438;2024-03-23T07:41:16;5.38;;;1.35;;
80179;SDS011;69505;52.134;5.438;2024-03-23T07:43:43;6.05;;;1.70;;
80179;SDS011;69505;52.134;5.438;2024-03-23T07:46:10;10.25;;;1.95;;
80179;SDS011;69505;52.134;5.438;2024-03-23T07:48:36;5.70;;;1.65;;
80179;SDS011;69505;52.134;5.438;2024-03-23T07:51:06;5.75;;;1.45;;
80179;SDS011;69505;52.134;5.438;2024-03-23T07:53:33;7.50;;;1.67;;
80179;SDS011;69505;52.134;5.438;2024-03-23T07:56:07;8.52;;;1.80;;
80179;SDS011;69505;52.134;5.438;2024-03-23T07:58:34;9.13;;;1.50;;
80179;SDS011;69505;52.134;5.438;2024-03-23T08:01:04;5.55;;;1.25;;
80179;SDS011;69505;52.134;5.438;2024-03-23T08:03:36;10.35;;;1.77;;
80179;SDS011;69505;52.134;5.438;2024-03-23T08:08:45;6.85;;;1.58;;
80179;SDS011;69505;52.134;5.438;2024-03-23T08:11:13;6.60;;;1.60;;
80179;SDS011;69505;52.134;5.438;2024-03-23T08:13:39;7.38;;;1.42;;
80179;SDS011;69505;52.134;5.438;2024-03-23T08:16:06;7.57;;;1.75;;
80179;SDS011;69505;52.134;5.438;2024-03-23T08:18:32;9.52;;;1.45;;
80179;SDS011;69505;52.134;5.438;2024-03-23T08:21:04;7.22;;;1.40;;
80179;SDS011;69505;52.134;5.438;2024-03-23T08:23:31;6.50;;;1.45;;
80179;SDS011;69505;52.134;5.438;2024-03-23T08:26:08;8.32;;;1.30;;
80179;SDS011;69505;52.134;5.438;2024-03-23T08:28:35;5.57;;;1.33;;
80179;SDS011;69505;52.134;5.438;2024-03-23T08:31:05;7.25;;;1.60;;
80179;SDS011;69505;52.134;5.438;2024-03-23T08:33:35;4.97;;;1.20;;
80179;SDS011;69505;52.134;5.438;2024-03-23T08:36:02;6.30;;;1.55;;
80179;SDS011;69505;52.134;5.438;2024-03-23T08:38:30;5.22;;;1.20;;
80179;SDS011;69505;52.134;5.438;2024-03-23T08:40:57;6.10;;;1.30;;
80179;SDS011;69505;52.134;5.438;2024-03-23T08:43:41;6.60;;;1.05;;
80179;SDS011;69505;52.134;5.438;2024-03-23T08:46:07;5.75;;;1.08;;
80179;SDS011;69505;52.134;5.438;2024-03-23T08:48:34;7.47;;;1.38;;
80179;SDS011;69505;52.134;5.438;2024-03-23T08:51:04;5.65;;;1.38;;
80179;SDS011;69505;52.134;5.438;2024-03-23T08:53:31;7.65;;;1.52;;
80179;SDS011;69505;52.134;5.438;2024-03-23T08:55:58;9.07;;;1.35;;
80179;SDS011;69505;52.134;5.438;2024-03-23T08:58:25;11.10;;;1.65;;
80179;SDS011;69505;52.134;5.438;2024-03-23T09:00:52;7.43;;;1.48;;
80179;SDS011;69505;52.134;5.438;2024-03-23T09:03:22;9.27;;;1.38;;
80179;SDS011;69505;52.134;5.438;2024-03-23T09:05:48;10.82;;;1.58;;
80179;SDS011;69505;52.134;5.438;2024-03-23T09:08:14;6.28;;;1.40;;
80179;SDS011;69505;52.134;5.438;2024-03-23T09:10:40;4.63;;;0.93;;
80179;SDS011;69505;52.134;5.438;2024-03-23T09:13:06;7.88;;;1.23;;
80179;SDS011;69505;52.134;5.438;2024-03-23T09:15:36;7.28;;;1.00;;
80179;SDS011;69505;52.134;5.438;2024-03-23T09:18:10;7.80;;;1.30;;
80179;SDS011;69505;52.134;5.438;2024-03-23T09:20:36;8.50;;;1.00;;
80179;SDS011;69505;52.134;5.438;2024-03-23T09:23:01;6.43;;;1.25;;
80179;SDS011;69505;52.134;5.438;2024-03-23T09:25:27;5.78;;;1.25;;
80179;SDS011;69505;52.134;5.438;2024-03-23T09:27:53;5.43;;;1.13;;
80179;SDS011;69505;52.134;5.438;2024-03-23T09:30:18;4.72;;;1.15;;
80179;SDS011;69505;52.134;5.438;2024-03-23T09:32:45;6.22;;;1.05;;
80179;SDS011;69505;52.134;5.438;2024-03-23T09:35:11;5.13;;;1.10;;
80179;SDS011;69505;52.134;5.438;2024-03-23T09:37:38;5.30;;;1.27;;
80179;SDS011;69505;52.134;5.438;2024-03-23T09:40:10;2.65;;;0.80;;
80179;SDS011;69505;52.134;5.438;2024-03-23T09:42:37;4.18;;;0.95;;
80179;SDS011;69505;52.134;5.438;2024-03-23T09:45:04;4.03;;;1.00;;
80179;SDS011;69505;52.134;5.438;2024-03-23T09:47:32;4.40;;;0.90;;
80179;SDS011;69505;52.134;5.438;2024-03-23T09:49:59;3.72;;;0.80;;
80179;SDS011;69505;52.134;5.438;2024-03-23T09:52:25;3.47;;;0.65;;
80179;SDS011;69505;52.134;5.438;2024-03-23T09:54:51;4.35;;;0.80;;
80179;SDS011;69505;52.134;5.438;2024-03-23T09:57:17;3.78;;;0.88;;
80179;SDS011;69505;52.134;5.438;2024-03-23T09:59:42;4.47;;;0.88;;
80179;SDS011;69505;52.134;5.438;2024-03-23T10:02:08;7.00;;;1.25;;
80179;SDS011;69505;52.134;5.438;2024-03-23T10:04:39;6.97;;;1.42;;
80179;SDS011;69505;52.134;5.438;2024-03-23T10:07:12;8.48;;;1.52;;
80179;SDS011;69505;52.134;5.438;2024-03-23T10:09:38;7.03;;;1.48;;
80179;SDS011;69505;52.134;5.438;2024-03-23T10:12:11;6.30;;;1.45;;
80179;SDS011;69505;52.134;5.438;2024-03-23T10:14:42;13.10;;;2.17;;
80179;SDS011;69505;52.134;5.438;2024-03-23T10:17:18;4.75;;;1.38;;
80179;SDS011;69505;52.134;5.438;2024-03-23T10:19:51;6.00;;;1.45;;
80179;SDS011;69505;52.134;5.438;2024-03-23T10:22:21;6.63;;;1.33;;
80179;SDS011;69505;52.134;5.438;2024-03-23T10:24:50;5.90;;;1.05;;
80179;SDS011;69505;52.134;5.438;2024-03-23T10:27:16;6.22;;;1.02;;
80179;SDS011;69505;52.134;5.438;2024-03-23T10:29:46;6.15;;;1.05;;
80179;SDS011;69505;52.134;5.438;2024-03-23T10:32:16;7.50;;;1.33;;
80179;SDS011;69505;52.134;5.438;2024-03-23T10:34:43;5.40;;;1.27;;
80179;SDS011;69505;52.134;5.438;2024-03-23T10:37:10;7.22;;;1.20;;
80179;SDS011;69505;52.134;5.438;2024-03-23T10:39:37;5.25;;;1.20;;
80179;SDS011;69505;52.134;5.438;2024-03-23T10:42:07;7.78;;;1.08;;
80179;SDS011;69505;52.134;5.438;2024-03-23T10:44:37;8.73;;;1.38;;
80179;SDS011;69505;52.134;5.438;2024-03-23T10:47:04;9.68;;;1.42;;
80179;SDS011;69505;52.134;5.438;2024-03-23T10:49:31;4.30;;;0.80;;
80179;SDS011;69505;52.134;5.438;2024-03-23T10:52:04;6.72;;;1.08;;
80179;SDS011;69505;52.134;5.438;2024-03-23T10:54:31;6.72;;;1.30;;
80179;SDS011;69505;52.134;5.438;2024-03-23T10:59:30;6.53;;;1.08;;
80179;SDS011;69505;52.134;5.438;2024-03-23T11:01:57;4.70;;;0.93;;
80179;SDS011;69505;52.134;5.438;2024-03-23T11:04:30;4.43;;;1.00;;
80179;SDS011;69505;52.134;5.438;2024-03-23T11:06:57;5.22;;;1.00;;
80179;SDS011;69505;52.134;5.438;2024-03-23T11:14:48;8.07;;;1.38;;
80179;SDS011;69505;52.134;5.438;2024-03-23T11:17:19;5.03;;;1.23;;
80179;SDS011;69505;52.134;5.438;2024-03-23T11:25:22;5.55;;;1.05;;
80179;SDS011;69505;52.134;5.438;2024-03-23T11:27:50;6.30;;;1.02;;
80179;SDS011;69505;52.134;5.438;2024-03-23T11:30:17;7.78;;;0.95;;
80179;SDS011;69505;52.134;5.438;2024-03-23T11:32:51;7.15;;;0.65;;
80179;SDS011;69505;52.134;5.438;2024-03-23T11:35:40;4.90;;;1.02;;
80179;SDS011;69505;52.134;5.438;2024-03-23T11:38:12;8.00;;;1.15;;
80179;SDS011;69505;52.134;5.438;2024-03-23T11:43:09;7.13;;;1.15;;
80179;SDS011;69505;52.134;5.438;2024-03-23T11:45:43;12.98;;;2.20;;
80179;SDS011;69505;52.134;5.438;2024-03-23T11:48:09;7.82;;;1.63;;
80179;SDS011;69505;52.134;5.438;2024-03-23T11:50:39;3.85;;;0.80;;
80179;SDS011;69505;52.134;5.438;2024-03-23T11:53:07;3.60;;;1.15;;
80179;SDS011;69505;52.134;5.438;2024-03-23T11:55:39;4.57;;;0.90;;
80179;SDS011;69505;52.134;5.438;2024-03-23T11:58:05;10.05;;;1.50;;
80179;SDS011;69505;52.134;5.438;2024-03-23T12:00:31;6.40;;;0.90;;
80179;SDS011;69505;52.134;5.438;2024-03-23T12:03:01;8.02;;;3.00;;
80179;SDS011;69505;52.134;5.438;2024-03-23T12:05:27;6.57;;;1.45;;
80179;SDS011;69505;52.134;5.438;2024-03-23T12:07:54;6.07;;;1.05;;
80179;SDS011;69505;52.134;5.438;2024-03-23T12:10:20;5.10;;;1.08;;
80179;SDS011;69505;52.134;5.438;2024-03-23T12:12:46;6.85;;;1.38;;
80179;SDS011;69505;52.134;5.438;2024-03-23T12:15:11;4.07;;;0.80;;
80179;SDS011;69505;52.134;5.438;2024-03-23T12:17:40;5.72;;;1.25;;
80179;SDS011;69505;52.134;5.438;2024-03-23T12:20:05;4.22;;;0.82;;
80179;SDS011;69505;52.134;5.438;2024-03-23T12:22:32;7.78;;;1.40;;
80179;SDS011;69505;52.134;5.438;2024-03-23T12:24:59;4.43;;;0.90;;
80179;SDS011;69505;52.134;5.438;2024-03-23T12:27:25;8.55;;;1.90;;
80179;SDS011;69505;52.134;5.438;2024-03-23T12:29:50;6.38;;;1.27;;
80179;SDS011;69505;52.134;5.438;2024-03-23T12:32:16;6.63;;;1.67;;
80179;SDS011;69505;52.134;5.438;2024-03-23T12:34:42;5.57;;;0.85;;
80179;SDS011;69505;52.134;5.438;2024-03-23T12:37:08;6.65;;;1.60;;
80179;SDS011;69505;52.134;5.438;2024-03-23T12:39:34;8.73;;;1.50;;
80179;SDS011;69505;52.134;5.438;2024-03-23T12:42:01;7.57;;;1.45;;
80179;SDS011;69505;52.134;5.438;2024-03-23T12:44:30;4.50;;;1.08;;
80179;SDS011;69505;52.134;5.438;2024-03-23T12:46:55;4.00;;;1.05;;
80179;SDS011;69505;52.134;5.438;2024-03-23T12:49:21;4.85;;;0.82;;
80179;SDS011;69505;52.134;5.438;2024-03-23T12:51:54;7.45;;;1.20;;
80179;SDS011;69505;52.134;5.438;2024-03-23T12:54:23;7.10;;;1.00;;
80179;SDS011;69505;52.134;5.438;2024-03-23T12:56:49;6.90;;;1.10;;
80179;SDS011;69505;52.134;5.438;2024-03-23T12:59:15;4.90;;;1.00;;
80179;SDS011;69505;52.134;5.438;2024-03-23T13:01:42;5.15;;;1.00;;
80179;SDS011;69505;52.134;5.438;2024-03-23T13:04:08;5.60;;;0.95;;
80179;SDS011;69505;52.134;5.438;2024-03-23T13:06:34;6.95;;;1.23;;
80179;SDS011;69505;52.134;5.438;2024-03-23T13:09:03;6.43;;;1.50;;
80179;SDS011;69505;52.134;5.438;2024-03-23T13:13:55;5.13;;;1.30;;
80179;SDS011;69505;52.134;5.438;2024-03-23T13:16:21;4.72;;;1.02;;
80179;SDS011;69505;52.134;5.438;2024-03-23T13:18:46;6.43;;;0.95;;
80179;SDS011;69505;52.134;5.438;2024-03-23T13:21:12;7.63;;;1.30;;
80179;SDS011;69505;52.134;5.438;2024-03-23T13:23:38;6.20;;;1.27;;
80179;SDS011;69505;52.134;5.438;2024-03-23T13:26:06;6.07;;;1.25;;
80179;SDS011;69505;52.134;5.438;2024-03-23T13:28:33;6.57;;;0.98;;
80179;SDS011;69505;52.134;5.438;2024-03-23T13:30:59;2.53;;;0.50;;
80179;SDS011;69505;52.134;5.438;2024-03-23T13:33:28;1.45;;;0.60;;
80179;SDS011;69505;52.134;5.438;2024-03-23T13:35:57;2.80;;;0.50;;
80179;SDS011;69505;52.134;5.438;2024-03-23T13:38:23;1.88;;;0.50;;
80179;SDS011;69505;52.134;5.438;2024-03-23T13:40:50;0.90;;;0.52;;
80179;SDS011;69505;52.134;5.438;2024-03-23T13:43:16;1.33;;;0.52;;
80179;SDS011;69505;52.134;5.438;2024-03-23T13:45:41;1.65;;;0.65;;
80179;SDS011;69505;52.134;5.438;2024-03-23T13:48:07;2.80;;;0.80;;
80179;SDS011;69505;52.134;5.438;2024-03-23T13:50:33;3.33;;;0.63;;
80179;SDS011;69505;52.134;5.438;2024-03-23T13:52:59;4.30;;;0.55;;
80179;SDS011;69505;52.134;5.438;2024-03-23T13:55:24;6.30;;;1.08;;
80179;SDS011;69505;52.134;5.438;2024-03-23T13:57:50;5.32;;;1.10;;
80179;SDS011;69505;52.134;5.438;2024-03-23T14:00:16;4.63;;;0.60;;
80179;SDS011;69505;52.134;5.438;2024-03-23T14:02:43;4.13;;;0.70;;
80179;SDS011;69505;52.134;5.438;2024-03-23T14:05:09;7.10;;;1.42;;
80179;SDS011;69505;52.134;5.438;2024-03-23T14:07:36;7.53;;;1.20;;
80179;SDS011;69505;52.134;5.438;2024-03-23T14:10:02;3.42;;;0.82;;
80179;SDS011;69505;52.134;5.438;2024-03-23T14:12:29;4.95;;;0.90;;
80179;SDS011;69505;52.134;5.438;2024-03-23T14:14:54;7.00;;;1.05;;
80179;SDS011;69505;52.134;5.438;2024-03-23T14:17:20;4.55;;;1.17;;
80179;SDS011;69505;52.134;5.438;2024-03-23T14:19:45;6.70;;;0.90;;
80179;SDS011;69505;52.134;5.438;2024-03-23T14:22:11;7.55;;;0.80;;
80179;SDS011;69505;52.134;5.438;2024-03-23T14:24:37;3.72;;;0.88;;
80179;SDS011;69505;52.134;5.438;2024-03-23T14:27:02;7.00;;;1.17;;
80179;SDS011;69505;52.134;5.438;2024-03-23T14:29:30;4.50;;;0.52;;
80179;SDS011;69505;52.134;5.438;2024-03-23T14:31:56;5.05;;;0.90;;
80179;SDS011;69505;52.134;5.438;2024-03-23T14:34:22;6.70;;;1.50;;
80179;SDS011;69505;52.134;5.438;2024-03-23T14:36:51;8.68;;;0.93;;
80179;SDS011;69505;52.134;5.438;2024-03-23T14:39:17;9.63;;;1.33;;
80179;SDS011;69505;52.134;5.438;2024-03-23T14:41:43;7.13;;;1.50;;
80179;SDS011;69505;52.134;5.438;2024-03-23T14:44:09;8.20;;;1.30;;
80179;SDS011;69505;52.134;5.438;2024-03-23T14:46:35;5.45;;;1.02;;
80179;SDS011;69505;52.134;5.438;2024-03-23T14:49:00;7.28;;;1.20;;
80179;SDS011;69505;52.134;5.438;2024-03-23T14:51:26;3.70;;;0.77;;
80179;SDS011;69505;52.134;5.438;2024-03-23T14:53:53;7.07;;;1.20;;
80179;SDS011;69505;52.134;5.438;2024-03-23T14:56:19;8.25;;;1.63;;
80179;SDS011;69505;52.134;5.438;2024-03-23T14:58:44;2.40;;;0.60;;
80179;SDS011;69505;52.134;5.438;2024-03-23T15:01:11;3.42;;;0.60;;
80179;SDS011;69505;52.134;5.438;2024-03-23T15:03:37;3.42;;;0.75;;
80179;SDS011;69505;52.134;5.438;2024-03-23T15:06:05;2.70;;;1.00;;
80179;SDS011;69505;52.134;5.438;2024-03-23T15:08:32;9.50;;;0.95;;
80179;SDS011;69505;52.134;5.438;2024-03-23T15:11:01;5.45;;;1.25;;
80179;SDS011;69505;52.134;5.438;2024-03-23T15:13:33;3.20;;;0.88;;
80179;SDS011;69505;52.134;5.438;2024-03-23T15:16:02;5.38;;;1.05;;
80179;SDS011;69505;52.134;5.438;2024-03-23T15:18:29;3.03;;;0.65;;
80179;SDS011;69505;52.134;5.438;2024-03-23T15:20:55;5.72;;;1.02;;
80179;SDS011;69505;52.134;5.438;2024-03-23T15:23:22;4.28;;;0.60;;
80179;SDS011;69505;52.134;5.438;2024-03-23T15:28:21;7.68;;;1.00;;
80179;SDS011;69505;52.134;5.438;2024-03-23T15:30:48;4.07;;;1.00;;
80179;SDS011;69505;52.134;5.438;2024-03-23T15:33:14;2.15;;;0.63;;
80179;SDS011;69505;52.134;5.438;2024-03-23T15:35:39;4.25;;;0.68;;
80179;SDS011;69505;52.134;5.438;2024-03-23T15:38:05;3.40;;;1.10;;
80179;SDS011;69505;52.134;5.438;2024-03-23T15:40:30;3.67;;;0.70;;
80179;SDS011;69505;52.134;5.438;2024-03-23T15:42:56;2.05;;;0.57;;
80179;SDS011;69505;52.134;5.438;2024-03-23T15:45:22;7.70;;;1.08;;
80179;SDS011;69505;52.134;5.438;2024-03-23T15:47:47;5.32;;;0.90;;
80179;SDS011;69505;52.134;5.438;2024-03-23T15:50:13;4.60;;;0.80;;
80179;SDS011;69505;52.134;5.438;2024-03-23T15:52:38;3.47;;;0.60;;
80179;SDS011;69505;52.134;5.438;2024-03-23T15:55:04;6.43;;;0.93;;
80179;SDS011;69505;52.134;5.438;2024-03-23T15:57:33;6.00;;;0.98;;